createdAt,value
2023-01-19T00:14:41.810Z,34.23
2023-01-19T00:34:41.821Z,34.23
2023-01-19T00:54:41.296Z,34.22
2023-01-19T01:14:41.819Z,34.22
2023-01-19T01:34:41.821Z,34.22
2023-01-19T01:54:41.824Z,34.22
2023-01-19T02:14:41.843Z,34.22
2023-01-19T02:34:41.823Z,34.21
2023-01-19T02:54:41.851Z,34.21
2023-01-19T03:14:41.821Z,34.21
2023-01-19T03:34:41.692Z,34.21
2023-01-19T03:54:41.828Z,34.2
2023-01-19T04:14:41.846Z,34.2
2023-01-19T04:34:41.854Z,34.2
2023-01-19T04:54:41.842Z,34.2
2023-01-19T05:14:41.314Z,34.2
2023-01-19T05:34:41.849Z,34.19
2023-01-19T05:54:41.838Z,34.19
2023-01-19T06:14:41.845Z,34.19
2023-01-19T06:34:41.851Z,34.18
2023-01-19T06:54:41.325Z,34.18
2023-01-19T07:14:41.324Z,34.18
2023-01-19T07:34:41.344Z,34.18
2023-01-19T07:54:41.337Z,34.18
2023-01-19T08:14:41.872Z,34.17
2023-01-19T08:34:41.730Z,34.17
2023-01-19T08:54:41.336Z,34.16
2023-01-19T09:14:41.858Z,34.17
2023-01-19T09:34:41.800Z,34.16
2023-01-19T09:54:41.865Z,34.16
2023-01-19T10:14:41.859Z,34.15
2023-01-19T10:34:41.876Z,34.15
2023-01-19T10:54:41.152Z,34.15
2023-01-19T11:14:41.871Z,34.15
2023-01-19T11:34:41.882Z,34.15
2023-01-19T11:54:41.913Z,34.15
2023-01-19T12:14:41.887Z,34.15
2023-01-19T12:34:41.885Z,34.15
2023-01-19T12:54:41.886Z,34.14
2023-01-19T13:14:40.764Z,34.15
2023-01-19T13:34:41.894Z,34.14
2023-01-19T13:54:42.179Z,34.14
2023-01-19T14:14:41.898Z,34.14
2023-01-19T14:34:41.886Z,34.14
2023-01-19T15:14:41.755Z,34.15
2023-01-19T15:34:41.895Z,34.14
2023-01-19T15:54:41.881Z,34.14
2023-01-19T16:14:41.871Z,34.15
2023-01-19T16:34:41.883Z,34.15
2023-01-19T16:54:41.886Z,34.15
2023-01-19T17:34:41.887Z,34.15
2023-01-19T17:54:41.893Z,34.15
2023-01-19T18:14:41.912Z,34.15
2023-01-19T18:34:41.916Z,34.15
2023-01-19T19:14:41.106Z,34.16
2023-01-19T19:54:41.366Z,34.16
2023-01-19T20:14:41.894Z,34.16
2023-01-19T20:54:41.893Z,34.17
2023-01-19T21:54:41.379Z,34.17
2023-01-19T22:14:41.385Z,34.17
2023-01-19T22:34:41.897Z,34.17
2023-01-19T22:54:41.913Z,34.17
2023-01-19T23:14:41.890Z,34.17
2023-01-19T23:34:41.764Z,34.17
2023-01-19T23:54:41.910Z,34.17
